Time;durP1;ratioP1;P1;durP2;ratioP2;P2;SDS_P1;SDS_P2;PMS_P1;PMS_P2;Temp;Humidity;BMP_temperature;BMP_pressure;BME280_temperature;BME280_humidity;BME280_pressure;Samples;Min_cycle;Max_cycle;Signal;HPM_P1;HPM_P2
2021/07/11 00:02:05;;;;;;;3.80;3.60;;;26.70;84.40;;;;;;6185693;23;20458;-89
2021/07/11 00:04:32;;;;;;;3.30;3.10;;;26.70;84.40;;;;;;6185724;23;20411;-90
2021/07/11 00:06:58;;;;;;;3.33;3.13;;;26.70;84.40;;;;;;6185549;23;20407;-90
2021/07/11 00:09:25;;;;;;;3.80;3.60;;;26.70;84.40;;;;;;6185521;23;20417;-90
2021/07/11 00:11:52;;;;;;;4.30;4.00;;;26.80;84.50;;;;;;6185927;23;20414;-90
2021/07/11 00:14:19;;;;;;;4.10;3.70;;;26.70;84.50;;;;;;6185673;23;20938;-90
2021/07/11 00:16:46;;;;;;;4.00;3.70;;;26.70;84.50;;;;;;6185651;23;20420;-90
2021/07/11 00:19:14;;;;;;;4.00;3.73;;;26.80;84.60;;;;;;6185735;23;20419;-90
2021/07/11 00:21:41;;;;;;;3.80;3.60;;;26.70;84.50;;;;;;6186088;23;20727;-90
2021/07/11 00:24:10;;;;;;;4.27;3.97;;;26.70;84.50;;;;;;6187851;23;20416;-90
2021/07/11 00:26:37;;;;;;;4.50;4.20;;;26.70;84.50;;;;;;6188238;23;20406;-90
2021/07/11 00:29:04;;;;;;;3.77;3.57;;;26.70;84.60;;;;;;6187553;23;20737;-90
2021/07/11 00:31:31;;;;;;;3.73;3.53;;;26.80;84.70;;;;;;6187505;23;20404;-90
2021/07/11 00:33:57;;;;;;;4.13;3.83;;;26.70;84.50;;;;;;6187881;23;20453;-91
2021/07/11 00:36:26;;;;;;;4.73;4.40;;;26.70;84.50;;;;;;6187625;23;20928;-90
2021/07/11 00:38:52;;;;;;;4.33;4.03;;;26.80;84.60;;;;;;6187436;23;20425;-90
2021/07/11 00:41:19;;;;;;;4.20;3.90;;;26.70;84.50;;;;;;6187024;23;20407;-90
2021/07/11 00:43:46;;;;;;;3.83;3.60;;;26.70;84.60;;;;;;6186794;23;20422;-90
2021/07/11 00:46:13;;;;;;;3.63;3.37;;;26.70;84.60;;;;;;6187237;23;20409;-90
2021/07/11 00:48:41;;;;;;;3.43;3.23;;;26.70;84.60;;;;;;6186951;23;20401;-91
2021/07/11 00:51:08;;;;;;;4.73;4.33;;;26.70;84.60;;;;;;6187659;23;20416;-90
2021/07/11 00:53:36;;;;;;;4.10;3.80;;;26.70;84.60;;;;;;6198323;23;20444;-90
2021/07/11 00:56:03;;;;;;;4.37;4.10;;;26.70;84.60;;;;;;6201154;23;20430;-90
2021/07/11 00:58:30;;;;;;;3.93;3.63;;;26.70;84.60;;;;;;6198478;23;20498;-87
2021/07/11 01:01:00;;;;;;;4.30;4.00;;;26.70;84.60;;;;;;6192177;23;20399;-90
2021/07/11 01:03:31;;;;;;;4.33;4.10;;;26.70;84.60;;;;;;6189826;23;20407;-90
2021/07/11 01:05:59;;;;;;;3.70;3.50;;;26.70;84.60;;;;;;6188943;23;20403;-90
2021/07/11 01:08:37;;;;;;;4.53;4.23;;;26.70;84.60;;;;;;6162046;23;20405;-90
2021/07/11 01:11:07;;;;;;;4.27;3.87;;;26.70;84.70;;;;;;6188116;23;20395;-90
2021/07/11 01:13:36;;;;;;;3.90;3.70;;;26.70;84.70;;;;;;6187181;23;20411;-90
2021/07/11 01:16:08;;;;;;;4.30;4.00;;;26.70;84.70;;;;;;6187459;23;20421;-90
2021/07/11 01:18:39;;;;;;;4.40;4.10;;;26.70;84.70;;;;;;6187040;23;20395;-90
2021/07/11 01:21:09;;;;;;;4.60;4.30;;;26.70;84.70;;;;;;6187100;23;20458;-90
2021/07/11 01:23:43;;;;;;;4.40;4.10;;;26.70;84.70;;;;;;6186666;23;20473;-90
2021/07/11 01:26:13;;;;;;;4.90;4.50;;;26.70;84.70;;;;;;6186652;23;20460;-90
2021/07/11 01:28:42;;;;;;;4.00;3.70;;;26.70;84.70;;;;;;6186796;23;20858;-90
2021/07/11 01:31:09;;;;;;;3.67;3.40;;;26.70;84.60;;;;;;6186632;23;20417;-90
2021/07/11 01:33:40;;;;;;;3.90;3.50;;;26.80;84.80;;;;;;6186285;23;20398;-91
2021/07/11 01:36:07;;;;;;;3.90;3.60;;;26.70;84.60;;;;;;6186268;23;20412;-90
2021/07/11 01:38:35;;;;;;;3.53;3.33;;;26.70;84.60;;;;;;6186886;23;20403;-90
2021/07/11 01:41:03;;;;;;;3.90;3.70;;;26.70;84.60;;;;;;6186995;23;20409;-90
2021/07/11 01:43:32;;;;;;;2.97;2.77;;;26.70;84.60;;;;;;6186075;23;20403;-90
2021/07/11 01:46:00;;;;;;;3.43;3.23;;;26.70;84.50;;;;;;6186421;23;20411;-90
2021/07/11 01:48:27;;;;;;;2.80;2.60;;;26.70;84.60;;;;;;6186460;23;20442;-90
2021/07/11 01:50:55;;;;;;;4.23;3.97;;;26.70;84.50;;;;;;6186539;23;20740;-90
2021/07/11 01:53:24;;;;;;;3.60;3.40;;;26.70;84.50;;;;;;6186682;23;20728;-90
2021/07/11 01:55:53;;;;;;;3.57;3.37;;;26.60;84.40;;;;;;6186340;23;20457;-90
2021/07/11 01:58:21;;;;;;;3.30;3.10;;;26.70;84.50;;;;;;6186489;23;20431;-90
2021/07/11 02:00:49;;;;;;;3.63;3.40;;;26.70;85.30;;;;;;6186558;23;20413;-90
2021/07/11 02:03:18;;;;;;;3.00;2.80;;;26.70;84.50;;;;;;6186606;23;20421;-90
2021/07/11 02:05:46;;;;;;;3.17;2.97;;;26.70;84.50;;;;;;6186244;23;20417;-90
2021/07/11 02:08:13;;;;;;;3.10;2.90;;;26.70;84.40;;;;;;6186313;23;20407;-90
2021/07/11 02:10:40;;;;;;;3.00;2.80;;;26.60;84.30;;;;;;6186553;23;20418;-90
2021/07/11 02:13:09;;;;;;;3.50;3.30;;;26.70;84.40;;;;;;6185748;23;20414;-90
2021/07/11 02:15:38;;;;;;;3.33;3.13;;;26.70;84.40;;;;;;6186205;23;20472;-90
2021/07/11 02:18:08;;;;;;;3.00;2.80;;;26.60;84.30;;;;;;6185942;23;20424;-90
2021/07/11 02:20:36;;;;;;;2.90;2.70;;;26.70;85.20;;;;;;6186484;23;20407;-90
2021/07/11 02:23:03;;;;;;;3.10;2.90;;;26.70;84.40;;;;;;6185944;23;20413;-90
2021/07/11 02:25:30;;;;;;;3.07;2.87;;;26.70;84.30;;;;;;6186461;23;20399;-90
2021/07/11 02:27:59;;;;;;;2.93;2.73;;;26.80;84.40;;;;;;6186313;23;20488;-89
2021/07/11 02:30:29;;;;;;;2.77;2.57;;;26.60;84.20;;;;;;6186091;23;20730;-89
2021/07/11 02:32:56;;;;;;;2.43;2.23;;;26.60;84.20;;;;;;6186275;23;20510;-90
2021/07/11 02:35:35;;;;;;;2.57;2.37;;;26.70;84.20;;;;;;6185737;23;20830;-90
2021/07/11 02:38:02;;;;;;;2.70;2.50;;;26.60;84.20;;;;;;6186166;23;20409;-90
2021/07/11 02:40:33;;;;;;;2.83;2.63;;;26.60;84.20;;;;;;6185984;23;20417;-90
2021/07/11 02:43:00;;;;;;;2.80;2.60;;;26.60;84.10;;;;;;6186084;23;20866;-90
2021/07/11 02:45:28;;;;;;;2.37;2.23;;;26.80;84.30;;;;;;6185558;23;20434;-90
2021/07/11 02:47:57;;;;;;;2.87;2.67;;;26.60;84.10;;;;;;6186612;23;20410;-90
2021/07/11 02:50:26;;;;;;;2.73;2.53;;;26.60;84.10;;;;;;6186331;23;20411;-90
2021/07/11 02:52:53;;;;;;;2.33;2.23;;;26.70;84.10;;;;;;6186305;23;20421;-90
2021/07/11 02:55:25;;;;;;;2.70;2.50;;;26.60;84.10;;;;;;6186272;23;20818;-91
2021/07/11 02:57:56;;;;;;;3.33;2.73;;;26.60;84.10;;;;;;6185572;23;20473;-90
2021/07/11 03:00:23;;;;;;;3.03;2.83;;;26.60;84.10;;;;;;6186031;23;20406;-89
2021/07/11 03:02:50;;;;;;;3.80;2.80;;;26.60;84.10;;;;;;6186431;23;20395;-90
2021/07/11 03:05:22;;;;;;;2.90;2.70;;;26.60;84.10;;;;;;6185964;23;20801;-89
2021/07/11 03:07:50;;;;;;;2.20;2.00;;;26.60;84.10;;;;;;6186504;23;20410;-90
2021/07/11 03:10:17;;;;;;;2.47;2.27;;;26.70;84.10;;;;;;6186406;23;20418;-90
2021/07/11 03:12:46;;;;;;;2.57;2.37;;;26.60;84.10;;;;;;6186288;23;20501;-90
2021/07/11 03:15:14;;;;;;;2.90;2.70;;;26.60;84.10;;;;;;6186025;23;20458;-90
2021/07/11 03:17:42;;;;;;;3.10;2.90;;;26.60;84.10;;;;;;6186675;23;20398;-91
2021/07/11 03:20:11;;;;;;;2.63;2.53;;;26.60;84.90;;;;;;6186194;23;20418;-90
2021/07/11 03:22:39;;;;;;;3.00;2.80;;;26.60;84.10;;;;;;6186220;23;20413;-90
2021/07/11 03:25:10;;;;;;;2.90;2.70;;;26.60;84.10;;;;;;6186019;23;20407;-90
2021/07/11 03:27:40;;;;;;;2.40;2.30;;;26.60;84.10;;;;;;6185943;23;20884;-90
2021/07/11 03:30:10;;;;;;;2.20;2.10;;;26.60;84.10;;;;;;6186317;23;20407;-90
2021/07/11 03:32:40;;;;;;;2.87;2.67;;;26.60;84.10;;;;;;6185963;23;20415;-90
2021/07/11 03:35:09;;;;;;;2.53;2.43;;;26.70;84.10;;;;;;6185880;23;20446;-90
2021/07/11 03:37:40;;;;;;;2.50;2.30;;;26.60;84.10;;;;;;6186306;23;20715;-90
2021/07/11 03:40:11;;;;;;;2.53;2.43;;;26.60;84.10;;;;;;6186224;23;20406;-90
2021/07/11 03:42:41;;;;;;;2.83;2.63;;;26.60;84.10;;;;;;6186240;23;20403;-90
2021/07/11 03:45:10;;;;;;;2.40;2.30;;;26.60;84.10;;;;;;6186056;23;20441;-90
2021/07/11 03:47:41;;;;;;;2.57;2.40;;;26.60;84.10;;;;;;6186078;23;20726;-91
2021/07/11 03:50:11;;;;;;;2.90;2.70;;;26.60;84.10;;;;;;6186044;23;20491;-90
2021/07/11 03:52:46;;;;;;;2.80;2.60;;;26.60;84.10;;;;;;6186655;23;20404;-90
2021/07/11 03:55:16;;;;;;;2.33;2.23;;;26.60;84.10;;;;;;6186692;23;20444;-91
2021/07/11 03:57:44;;;;;;;3.10;2.90;;;26.60;84.10;;;;;;6187486;23;20952;-90
2021/07/11 04:00:12;;;;;;;3.93;3.13;;;26.60;84.20;;;;;;6188992;23;20402;-90
2021/07/11 04:02:40;;;;;;;3.57;3.37;;;26.60;84.20;;;;;;6188624;23;20410;-90
2021/07/11 04:05:08;;;;;;;2.70;2.50;;;26.60;84.20;;;;;;6189659;23;20734;-90
2021/07/11 04:07:36;;;;;;;3.10;2.90;;;26.60;84.20;;;;;;6189200;23;20431;-91
2021/07/11 04:10:05;;;;;;;2.83;2.70;;;26.60;84.20;;;;;;6191349;23;20414;-90
2021/07/11 04:12:33;;;;;;;3.50;3.30;;;26.60;84.20;;;;;;6189145;23;20402;-90
2021/07/11 04:15:00;;;;;;;3.67;3.40;;;26.60;84.20;;;;;;6187115;23;20442;-90
2021/07/11 04:17:29;;;;;;;3.00;2.80;;;26.60;84.20;;;;;;6187567;23;20403;-90
2021/07/11 04:19:58;;;;;;;2.50;2.33;;;26.60;84.20;;;;;;6187516;23;20413;-90
2021/07/11 04:22:26;;;;;;;3.17;2.97;;;26.60;84.20;;;;;;6161060;23;20729;-90
2021/07/11 04:24:55;;;;;;;2.83;2.63;;;26.40;84.00;;;;;;6187556;23;20417;-90
2021/07/11 04:27:23;;;;;;;3.30;3.10;;;26.60;84.20;;;;;;6187613;23;20398;-90
2021/07/11 04:29:52;;;;;;;2.97;2.77;;;26.60;84.20;;;;;;6187209;23;20407;-91
2021/07/11 04:32:20;;;;;;;3.10;2.90;;;26.60;84.20;;;;;;6187126;23;20395;-90
2021/07/11 04:34:47;;;;;;;3.00;2.80;;;26.60;84.30;;;;;;6186740;23;20926;-89
2021/07/11 04:37:14;;;;;;;3.50;3.27;;;26.60;84.20;;;;;;6186929;23;20417;-90
2021/07/11 04:39:41;;;;;;;3.10;2.90;;;26.60;84.20;;;;;;6187059;23;20417;-90
2021/07/11 04:42:08;;;;;;;3.07;2.87;;;26.60;84.20;;;;;;6186912;23;20411;-90
2021/07/11 04:44:35;;;;;;;2.80;2.60;;;26.60;84.20;;;;;;6187158;23;20437;-90
2021/07/11 04:47:03;;;;;;;3.67;3.43;;;26.60;84.20;;;;;;6188257;23;20520;-90
2021/07/11 04:49:30;;;;;;;3.43;3.23;;;26.60;84.30;;;;;;6186913;23;20410;-90
2021/07/11 04:51:57;;;;;;;3.33;3.13;;;26.60;84.30;;;;;;6186909;23;20403;-90
2021/07/11 04:54:25;;;;;;;3.40;3.20;;;26.60;84.30;;;;;;6186851;23;20407;-90
2021/07/11 04:56:52;;;;;;;3.33;3.13;;;26.60;84.20;;;;;;6186603;23;20442;-89
2021/07/11 04:59:19;;;;;;;3.40;3.20;;;26.70;84.30;;;;;;6187368;23;20406;-89
2021/07/11 05:01:46;;;;;;;3.47;3.27;;;26.70;84.40;;;;;;6186565;23;20493;-90
2021/07/11 05:04:14;;;;;;;3.13;2.93;;;26.60;84.30;;;;;;6186821;23;20410;-90
2021/07/11 05:06:41;;;;;;;3.73;3.53;;;26.60;84.20;;;;;;6186608;23;20509;-90
2021/07/11 05:09:08;;;;;;;2.80;2.53;;;26.60;84.20;;;;;;6186474;23;20409;-90
2021/07/11 05:11:35;;;;;;;3.23;3.03;;;26.60;84.20;;;;;;6187092;23;20889;-90
2021/07/11 05:14:03;;;;;;;3.40;3.20;;;26.60;84.20;;;;;;6186909;23;20432;-90
2021/07/11 05:16:30;;;;;;;3.17;2.97;;;26.70;84.40;;;;;;6187012;23;20453;-90
2021/07/11 05:18:57;;;;;;;3.40;3.20;;;26.60;84.30;;;;;;6187007;23;20410;-90
2021/07/11 05:21:25;;;;;;;3.33;3.13;;;26.70;84.40;;;;;;6187138;23;20406;-90
2021/07/11 05:23:55;;;;;;;3.07;2.87;;;26.60;84.30;;;;;;6186719;23;20410;-90
2021/07/11 05:26:22;;;;;;;3.50;3.30;;;26.60;84.30;;;;;;6186600;23;20387;-90
2021/07/11 05:28:49;;;;;;;3.07;2.87;;;26.60;84.30;;;;;;6186367;23;20430;-90
2021/07/11 05:31:15;;;;;;;3.10;2.90;;;26.50;84.20;;;;;;6186464;23;20395;-90
2021/07/11 05:33:42;;;;;;;3.90;3.70;;;26.60;84.30;;;;;;6186780;23;20399;-90
2021/07/11 05:36:10;;;;;;;3.20;3.00;;;26.70;84.40;;;;;;6186646;23;20493;-90
2021/07/11 05:38:40;;;;;;;3.97;3.67;;;26.60;84.40;;;;;;6186792;23;20432;-90
2021/07/11 05:41:07;;;;;;;3.60;3.40;;;26.60;84.40;;;;;;6186809;23;20422;-90
2021/07/11 05:43:34;;;;;;;3.30;3.10;;;26.50;84.20;;;;;;6193587;23;20430;-89
2021/07/11 05:46:01;;;;;;;3.87;3.67;;;26.50;84.30;;;;;;6195663;23;20403;-90
2021/07/11 05:48:29;;;;;;;3.40;3.20;;;26.60;84.40;;;;;;6196236;23;20489;-89
2021/07/11 05:50:55;;;;;;;3.63;3.43;;;26.60;84.40;;;;;;6193087;23;20407;-90
2021/07/11 05:53:22;;;;;;;3.13;2.93;;;26.60;84.40;;;;;;6190486;23;20414;-89
2021/07/11 05:55:51;;;;;;;3.07;2.87;;;26.60;84.40;;;;;;6187978;23;20442;-89
2021/07/11 05:58:18;;;;;;;3.83;3.60;;;26.60;84.40;;;;;;6186620;23;20442;-90
2021/07/11 06:00:45;;;;;;;3.77;3.57;;;26.50;84.30;;;;;;6186621;23;20418;-89
2021/07/11 06:03:12;;;;;;;3.70;3.43;;;26.50;84.30;;;;;;6186649;23;20733;-90
2021/07/11 06:05:42;;;;;;;4.43;4.13;;;26.60;84.40;;;;;;6186680;23;20416;-90
2021/07/11 06:08:09;;;;;;;3.60;3.40;;;26.50;84.30;;;;;;6186785;23;20406;-90
2021/07/11 06:10:36;;;;;;;3.90;3.70;;;26.50;84.30;;;;;;6186483;23;20411;-90
2021/07/11 06:13:05;;;;;;;3.77;3.57;;;26.50;84.40;;;;;;6186471;23;20411;-90
2021/07/11 06:15:32;;;;;;;4.33;4.03;;;26.60;84.50;;;;;;6186312;23;20449;-90
2021/07/11 06:17:59;;;;;;;4.40;4.10;;;26.50;84.40;;;;;;6186662;23;20418;-91
2021/07/11 06:20:26;;;;;;;3.97;3.77;;;26.60;84.50;;;;;;6160912;23;20435;-90
2021/07/11 06:22:53;;;;;;;4.40;4.10;;;26.50;84.40;;;;;;6186388;23;20421;-89
2021/07/11 06:25:20;;;;;;;3.77;3.57;;;26.60;84.50;;;;;;6186759;23;20413;-90
2021/07/11 06:27:47;;;;;;;3.60;3.40;;;26.70;84.70;;;;;;6186915;23;20782;-90
2021/07/11 06:30:17;;;;;;;3.70;3.50;;;26.50;84.50;;;;;;6186507;23;20890;-90
2021/07/11 06:32:45;;;;;;;3.90;3.70;;;26.50;84.50;;;;;;6186471;23;20476;-90
2021/07/11 06:35:15;;;;;;;3.87;3.67;;;26.50;84.40;;;;;;6186197;23;20399;-90
2021/07/11 06:37:42;;;;;;;3.80;3.60;;;26.50;84.40;;;;;;6186185;23;20434;-91
2021/07/11 06:40:11;;;;;;;4.50;4.20;;;26.50;84.40;;;;;;6186697;23;20724;-91
2021/07/11 06:42:38;;;;;;;3.97;3.67;;;26.50;84.40;;;;;;6186575;23;20403;-91
2021/07/11 06:45:07;;;;;;;3.50;3.30;;;26.50;84.40;;;;;;6187218;23;20427;-91
2021/07/11 06:47:37;;;;;;;3.13;2.93;;;26.60;84.50;;;;;;6186513;23;20482;-91
2021/07/11 06:50:06;;;;;;;2.87;2.67;;;26.60;84.50;;;;;;6186185;23;20410;-91
2021/07/11 06:52:34;;;;;;;3.60;3.40;;;26.60;84.40;;;;;;6186259;23;20410;-91
2021/07/11 06:55:01;;;;;;;3.40;3.20;;;26.60;84.50;;;;;;6186055;23;20411;-91
2021/07/11 06:57:28;;;;;;;4.00;3.80;;;26.50;84.40;;;;;;6185693;23;21001;-91
2021/07/11 06:59:55;;;;;;;3.90;3.60;;;26.60;84.50;;;;;;6185633;23;20415;-91
2021/07/11 07:02:22;;;;;;;4.63;4.33;;;26.70;84.60;;;;;;6186258;23;20436;-91
2021/07/11 07:04:50;;;;;;;4.23;4.03;;;26.70;84.60;;;;;;6186610;23;20893;-90
2021/07/11 07:07:17;;;;;;;4.50;4.20;;;26.70;84.60;;;;;;6186544;23;20820;-91
2021/07/11 07:09:43;;;;;;;4.30;4.00;;;26.60;84.40;;;;;;6186903;23;20482;-90
2021/07/11 07:12:10;;;;;;;3.93;3.73;;;26.50;84.30;;;;;;6186894;23;20413;-90
2021/07/11 07:14:37;;;;;;;4.03;3.83;;;26.50;84.30;;;;;;6187098;23;20426;-90
2021/07/11 07:17:04;;;;;;;4.47;4.17;;;26.50;84.30;;;;;;6186640;23;20442;-91
2021/07/11 07:19:31;;;;;;;4.80;4.50;;;26.50;84.30;;;;;;6187014;23;20407;-91
2021/07/11 07:22:02;;;;;;;5.20;4.80;;;26.50;84.40;;;;;;6187347;23;20417;-91
2021/07/11 07:24:29;;;;;;;5.53;5.13;;;26.60;84.50;;;;;;6188282;23;20731;-90
2021/07/11 07:26:56;;;;;;;4.87;4.57;;;26.50;84.40;;;;;;6190741;23;20413;-89
2021/07/11 07:29:23;;;;;;;5.13;4.83;;;26.40;84.30;;;;;;6188078;23;20441;-89
2021/07/11 07:31:50;;;;;;;16.70;15.10;;;26.50;84.40;;;;;;6186661;23;20406;-88
2021/07/11 07:34:19;;;;;;;17.27;15.77;;;26.40;84.80;;;;;;6187527;23;20423;-89
2021/07/11 07:36:47;;;;;;;19.47;17.60;;;26.30;85.20;;;;;;6187422;23;20806;-88
2021/07/11 07:39:16;;;;;;;21.60;19.53;;;26.30;85.00;;;;;;6188132;23;20738;-89
2021/07/11 07:41:43;;;;;;;20.90;18.77;;;26.20;85.20;;;;;;6187963;23;20736;-89
2021/07/11 07:44:10;;;;;;;22.67;20.50;;;26.00;85.30;;;;;;6187710;23;20425;-89
2021/07/11 07:46:37;;;;;;;21.33;18.83;;;26.10;85.80;;;;;;6188024;23;20408;-88
2021/07/11 07:49:04;;;;;;;22.40;20.30;;;26.00;86.20;;;;;;6187606;23;20912;-89
2021/07/11 07:51:30;;;;;;;22.10;19.80;;;25.90;86.30;;;;;;6188075;23;20405;-89
2021/07/11 07:53:57;;;;;;;22.57;20.47;;;25.90;86.60;;;;;;6187337;23;20402;-89
2021/07/11 07:56:25;;;;;;;23.13;20.93;;;25.90;86.80;;;;;;6187491;23;21018;-88
2021/07/11 07:58:52;;;;;;;24.90;22.50;;;25.90;86.80;;;;;;6187014;23;20433;-88
2021/07/11 08:01:19;;;;;;;26.07;23.70;;;26.00;87.10;;;;;;6187462;23;20416;-88
2021/07/11 08:03:46;;;;;;;24.60;22.10;;;25.80;86.90;;;;;;6187714;23;20410;-89
2021/07/11 08:06:12;;;;;;;27.03;24.33;;;25.80;86.70;;;;;;6187376;23;20889;-89
2021/07/11 08:08:39;;;;;;;24.10;21.83;;;25.90;86.70;;;;;;6187241;23;20405;-89
2021/07/11 08:11:07;;;;;;;24.37;21.97;;;25.80;86.90;;;;;;6187651;23;20412;-89
2021/07/11 08:13:35;;;;;;;26.10;23.50;;;26.00;87.70;;;;;;6187595;23;20453;-89
2021/07/11 08:16:03;;;;;;;25.00;22.50;;;25.90;88.00;;;;;;6186969;23;20515;-90
2021/07/11 08:18:29;;;;;;;26.30;23.53;;;25.90;87.60;;;;;;6187520;23;20732;-89
2021/07/11 08:20:56;;;;;;;24.40;21.87;;;26.00;87.00;;;;;;6187503;23;20410;-92
2021/07/11 08:23:23;;;;;;;25.83;23.23;;;26.00;87.00;;;;;;6187597;23;20409;-93
2021/07/11 08:25:50;;;;;;;25.27;22.70;;;26.10;87.10;;;;;;6187873;23;20744;-93
2021/07/11 08:28:17;;;;;;;24.67;22.27;;;26.00;87.20;;;;;;6187987;23;20419;-90
2021/07/11 08:30:45;;;;;;;24.50;22.30;;;26.10;87.10;;;;;;6187774;23;20905;-89
2021/07/11 08:33:12;;;;;;;26.07;23.57;;;26.20;86.80;;;;;;6187922;23;20409;-91
2021/07/11 08:35:39;;;;;;;23.17;21.03;;;26.00;86.50;;;;;;6187495;23;20409;-90
2021/07/11 08:38:06;;;;;;;23.70;21.40;;;26.00;86.40;;;;;;6187455;23;20464;-90
2021/07/11 08:40:34;;;;;;;24.30;22.10;;;26.10;86.30;;;;;;6187603;23;20408;-89
2021/07/11 08:43:04;;;;;;;23.83;21.63;;;26.10;86.20;;;;;;6187234;23;20406;-89
2021/07/11 08:45:32;;;;;;;24.47;22.23;;;26.10;86.00;;;;;;6187341;23;20409;-89
2021/07/11 08:48:00;;;;;;;22.57;20.70;;;26.20;86.10;;;;;;6187503;23;20413;-89
2021/07/11 08:50:27;;;;;;;35.17;21.13;;;26.20;85.90;;;;;;6186986;23;20406;-90
2021/07/11 08:52:55;;;;;;;20.53;18.80;;;26.20;85.80;;;;;;6187328;23;20402;-89
2021/07/11 08:55:26;;;;;;;21.23;19.40;;;26.30;86.10;;;;;;6187182;23;20414;-89
2021/07/11 08:57:55;;;;;;;20.30;18.60;;;26.30;86.10;;;;;;6186852;23;20781;-88
2021/07/11 09:00:24;;;;;;;20.70;18.83;;;26.30;85.90;;;;;;6187526;23;20402;-94
2021/07/11 09:02:51;;;;;;;20.90;18.80;;;26.50;86.20;;;;;;6187389;23;20872;-95
2021/07/11 09:05:24;;;;;;;19.67;18.00;;;26.40;86.30;;;;;;6187277;23;20401;-93
2021/07/11 09:08:05;;;;;;;20.97;19.27;;;26.40;85.30;;;;;;6186964;23;20410;-93
2021/07/11 09:10:37;;;;;;;19.23;17.43;;;26.40;85.20;;;;;;6186989;23;20418;-92
2021/07/11 09:13:11;;;;;;;19.83;18.20;;;26.40;85.20;;;;;;6187680;23;20454;-92
2021/07/11 09:15:41;;;;;;;18.97;17.43;;;26.50;85.20;;;;;;6187775;23;20386;-93
2021/07/11 09:18:08;;;;;;;19.63;17.93;;;26.50;86.00;;;;;;6188008;23;20522;-93
2021/07/11 09:20:50;;;;;;;18.97;17.30;;;26.50;85.00;;;;;;6188203;23;20417;-92
2021/07/11 09:23:18;;;;;;;18.33;16.80;;;26.50;84.90;;;;;;6187855;23;20503;-93
2021/07/11 09:25:56;;;;;;;17.83;16.33;;;26.50;85.00;;;;;;6188467;23;20473;-93
2021/07/11 09:28:23;;;;;;;17.93;16.63;;;26.60;85.00;;;;;;6187777;23;20414;-93
2021/07/11 09:31:05;;;;;;;19.00;17.40;;;26.70;85.00;;;;;;6189094;23;20433;-96
2021/07/11 09:33:32;;;;;;;15.90;14.60;;;26.50;84.80;;;;;;6186758;23;20485;-90
2021/07/11 09:36:12;;;;;;;16.60;15.20;;;26.60;85.10;;;;;;6185370;23;20406;-90
2021/07/11 09:38:40;;;;;;;14.93;13.83;;;26.70;85.10;;;;;;6186255;23;20389;-90
2021/07/11 09:41:23;;;;;;;14.90;13.70;;;26.50;85.10;;;;;;6185882;23;20456;-90
2021/07/11 09:43:50;;;;;;;17.07;15.70;;;26.50;85.10;;;;;;6185794;23;20429;-89
2021/07/11 09:46:18;;;;;;;15.10;13.80;;;26.50;85.00;;;;;;6186015;23;20735;-89
2021/07/11 09:48:45;;;;;;;15.33;14.03;;;26.50;85.00;;;;;;6186314;23;20402;-90
2021/07/11 09:51:19;;;;;;;15.60;14.30;;;26.60;85.10;;;;;;6186326;23;20414;-90
2021/07/11 09:53:48;;;;;;;15.47;14.17;;;26.60;85.10;;;;;;6186829;23;20426;-90
2021/07/11 09:56:35;;;;;;;14.90;13.80;;;26.50;85.00;;;;;;6186272;23;20399;-88
2021/07/11 09:59:03;;;;;;;15.63;14.23;;;26.60;85.00;;;;;;6186863;23;20449;-88
2021/07/11 10:01:30;;;;;;;14.90;13.60;;;26.50;84.90;;;;;;6187442;23;20423;-86
2021/07/11 10:03:58;;;;;;;15.73;14.50;;;26.50;84.90;;;;;;6189137;23;20403;-88
2021/07/11 10:06:27;;;;;;;15.33;14.10;;;26.50;84.90;;;;;;6186329;23;20397;-88
2021/07/11 10:08:54;;;;;;;14.90;13.70;;;26.50;84.90;;;;;;6186457;23;20886;-88
2021/07/11 10:11:20;;;;;;;14.33;13.23;;;26.60;84.90;;;;;;6186704;23;20412;-89
2021/07/11 10:13:48;;;;;;;15.93;14.37;;;26.60;84.90;;;;;;6186835;23;20430;-91
2021/07/11 10:16:16;;;;;;;15.20;13.93;;;26.60;84.90;;;;;;6186803;23;20413;-88
2021/07/11 10:18:44;;;;;;;15.10;13.90;;;26.60;84.90;;;;;;6186135;23;20414;-88
2021/07/11 10:21:12;;;;;;;14.20;13.00;;;26.60;84.80;;;;;;6186307;23;20414;-88
2021/07/11 10:23:41;;;;;;;15.23;14.03;;;26.60;84.90;;;;;;6186638;23;20409;-88
2021/07/11 10:26:11;;;;;;;14.67;13.47;;;26.60;84.80;;;;;;6186619;23;20413;-89
2021/07/11 10:28:40;;;;;;;12.73;11.73;;;26.60;84.80;;;;;;6186915;23;20407;-88
2021/07/11 10:31:18;;;;;;;13.87;12.77;;;26.70;84.80;;;;;;6194295;23;20413;-88
2021/07/11 10:33:46;;;;;;;14.10;13.00;;;26.60;84.60;;;;;;6209190;23;20381;-88
2021/07/11 10:36:14;;;;;;;14.40;13.30;;;26.80;84.70;;;;;;6213615;23;20505;-89
2021/07/11 10:38:51;;;;;;;13.50;12.50;;;26.70;84.60;;;;;;6205037;23;20414;-88
2021/07/11 10:41:19;;;;;;;14.50;13.30;;;26.70;84.40;;;;;;6190755;23;20399;-88
2021/07/11 10:44:01;;;;;;;13.37;12.30;;;26.80;85.00;;;;;;6191294;23;20447;-87
2021/07/11 10:46:32;;;;;;;13.80;12.40;;;26.70;84.40;;;;;;6191032;23;20394;-88
2021/07/11 10:49:10;;;;;;;13.33;12.17;;;26.70;84.50;;;;;;6186852;23;20411;-88
2021/07/11 10:51:44;;;;;;;13.00;11.90;;;26.70;84.40;;;;;;6186515;23;20438;-89
2021/07/11 10:54:29;;;;;;;13.20;12.20;;;26.70;84.40;;;;;;6186384;23;20420;-88
2021/07/11 10:56:57;;;;;;;12.83;11.83;;;26.80;84.50;;;;;;6188128;23;20447;-88
2021/07/11 10:59:32;;;;;;;13.73;12.63;;;26.70;84.50;;;;;;6191724;23;20405;-88
2021/07/11 11:02:01;;;;;;;12.40;11.30;;;26.70;84.50;;;;;;6188578;23;20409;-89
2021/07/11 11:04:28;;;;;;;12.30;11.40;;;26.70;84.50;;;;;;6189339;23;20402;-88
2021/07/11 11:06:55;;;;;;;12.40;11.33;;;26.70;84.50;;;;;;6189283;23;20410;-88
2021/07/11 11:09:42;;;;;;;11.77;10.87;;;26.70;84.50;;;;;;6189324;23;20414;-88
2021/07/11 11:12:20;;;;;;;12.40;11.50;;;26.70;84.40;;;;;;6186293;23;20430;-89
2021/07/11 11:14:55;;;;;;;13.03;12.00;;;26.70;84.50;;;;;;6186252;23;20427;-88
2021/07/11 11:17:33;;;;;;;13.00;12.00;;;26.80;84.70;;;;;;6186093;23;20765;-88
2021/07/11 11:20:02;;;;;;;12.33;11.43;;;26.70;84.60;;;;;;6185571;23;20402;-88
2021/07/11 11:22:29;;;;;;;11.90;11.00;;;26.70;84.60;;;;;;6185976;23;20736;-88
2021/07/11 11:24:58;;;;;;;12.23;11.33;;;26.70;84.60;;;;;;6186306;23;20417;-88
2021/07/11 11:27:33;;;;;;;12.00;11.10;;;26.80;84.70;;;;;;6185429;23;20461;-88
2021/07/11 11:30:15;;;;;;;12.60;11.60;;;26.70;84.50;;;;;;6185994;23;20405;-88
2021/07/11 11:32:42;;;;;;;12.03;11.13;;;26.70;85.40;;;;;;6185508;23;20902;-88
2021/07/11 11:35:10;;;;;;;10.77;9.97;;;26.70;85.50;;;;;;6185657;23;20403;-88
2021/07/11 11:37:45;;;;;;;10.90;10.07;;;26.70;84.70;;;;;;6185723;23;20449;-88
2021/07/11 11:40:15;;;;;;;11.60;10.70;;;26.70;84.60;;;;;;6185475;23;20413;-88
2021/07/11 11:42:45;;;;;;;10.57;9.77;;;26.70;84.60;;;;;;6185929;23;20413;-87
2021/07/11 11:45:14;;;;;;;12.37;11.47;;;26.70;84.60;;;;;;6186162;23;20477;-89
2021/07/11 11:47:41;;;;;;;11.77;10.87;;;26.70;84.70;;;;;;6185486;23;20417;-88
2021/07/11 11:50:13;;;;;;;12.53;11.53;;;26.70;84.60;;;;;;6185958;23;20741;-88
2021/07/11 11:52:39;;;;;;;11.20;10.40;;;26.70;84.60;;;;;;6185800;23;20410;-88
2021/07/11 11:55:08;;;;;;;10.70;9.90;;;26.70;84.60;;;;;;6185502;23;20879;-89
2021/07/11 11:57:39;;;;;;;10.77;9.87;;;26.70;84.50;;;;;;6185279;23;20449;-88
2021/07/11 12:00:14;;;;;;;11.00;10.20;;;26.70;84.50;;;;;;6185398;23;20802;-89
2021/07/11 12:02:41;;;;;;;11.37;10.57;;;26.70;84.50;;;;;;6185262;23;20387;-88
2021/07/11 12:05:10;;;;;;;11.13;10.33;;;26.80;84.50;;;;;;6185833;23;20409;-88
2021/07/11 12:07:37;;;;;;;11.10;10.30;;;26.80;84.40;;;;;;6185295;23;20407;-88
2021/07/11 12:10:05;;;;;;;10.57;9.77;;;26.70;84.40;;;;;;6185795;23;20405;-88
2021/07/11 12:12:32;;;;;;;11.27;10.47;;;26.70;84.40;;;;;;6185239;23;20411;-88
2021/07/11 12:15:03;;;;;;;11.03;10.13;;;26.70;84.40;;;;;;6185559;23;20433;-88
2021/07/11 12:17:32;;;;;;;10.83;10.03;;;26.70;84.40;;;;;;6185265;23;20537;-88
2021/07/11 12:19:59;;;;;;;11.27;10.40;;;26.80;84.50;;;;;;6187306;23;20411;-88
2021/07/11 12:22:27;;;;;;;9.60;8.90;;;26.70;84.40;;;;;;6187152;23;20409;-88
2021/07/11 12:25:04;;;;;;;10.73;9.93;;;26.70;84.40;;;;;;6187493;23;20398;-88
2021/07/11 12:27:34;;;;;;;10.13;9.33;;;26.70;84.30;;;;;;6187598;23;20452;-88
2021/07/11 12:30:09;;;;;;;10.10;9.40;;;26.70;84.30;;;;;;6187199;23;20497;-88
2021/07/11 12:32:44;;;;;;;10.93;10.17;;;26.70;84.30;;;;;;6186797;23;20403;-88
2021/07/11 12:35:11;;;;;;;10.80;9.90;;;26.80;84.30;;;;;;6186951;23;20390;-88
2021/07/11 12:37:49;;;;;;;11.30;10.50;;;26.80;84.40;;;;;;6187682;23;20457;-88
2021/07/11 12:40:16;;;;;;;11.20;10.30;;;26.80;84.40;;;;;;6187708;23;20449;-88
2021/07/11 12:42:43;;;;;;;9.00;8.40;;;26.80;84.50;;;;;;6187342;23;20410;-88
2021/07/11 12:45:19;;;;;;;10.07;9.30;;;26.90;84.50;;;;;;6187483;23;20413;-88
2021/07/11 12:47:53;;;;;;;10.10;9.40;;;26.90;84.50;;;;;;6187768;23;20394;-88